createdAt,value
2022-10-18T00:00:22.420Z,13.60
2022-10-18T00:02:49.792Z,14.43
2022-10-18T00:05:17.296Z,13.10
2022-10-18T00:07:44.604Z,21.85
2022-10-18T00:10:11.914Z,18.98
2022-10-18T00:12:39.651Z,17.27
2022-10-18T00:15:08.480Z,20.42
2022-10-18T00:17:36.456Z,16.73
2022-10-18T00:20:06.015Z,15.23
2022-10-18T00:22:36.352Z,18.65
2022-10-18T00:25:04.487Z,16.67
2022-10-18T00:27:32.589Z,16.42
2022-10-18T00:30:00.457Z,19.73
2022-10-18T00:32:28.084Z,19.30
2022-10-18T00:34:55.715Z,15.40
2022-10-18T00:37:23.128Z,14.57
2022-10-18T00:42:20.998Z,16.38
2022-10-18T00:47:26.807Z,14.70
2022-10-18T00:49:57.454Z,16.33
2022-10-18T00:52:30.283Z,17.45
2022-10-18T00:54:58.518Z,14.60
2022-10-18T00:57:26.531Z,15.80
2022-10-18T00:59:54.520Z,16.20
2022-10-18T01:02:22.237Z,17.45
2022-10-18T01:04:50.100Z,13.52
2022-10-18T01:13:25.805Z,11.35
2022-10-18T01:16:18.604Z,15.73
2022-10-18T01:18:58.844Z,12.98
2022-10-18T01:32:35.548Z,19.75
2022-10-18T01:35:08.120Z,19.17
2022-10-18T01:37:38.046Z,18.42
2022-10-18T01:40:08.044Z,16.75
2022-10-18T01:42:35.755Z,21.00
2022-10-18T01:45:04.610Z,16.83
2022-10-18T01:47:32.756Z,16.92
2022-10-18T01:50:05.046Z,17.65
2022-10-18T01:52:33.427Z,16.40
2022-10-18T01:55:02.165Z,18.17
2022-10-18T02:00:30.883Z,22.92
2022-10-18T02:03:07.355Z,25.00
2022-10-18T02:08:46.008Z,24.55
2022-10-18T02:11:16.282Z,23.80
2022-10-18T02:13:52.282Z,22.02
2022-10-18T02:16:39.558Z,19.73
2022-10-18T02:19:30.366Z,23.90
2022-10-18T02:21:59.361Z,22.23
2022-10-18T02:24:34.759Z,20.48
2022-10-18T02:27:02.623Z,22.95
2022-10-18T02:35:18.500Z,23.67
2022-10-18T02:37:48.669Z,20.98
2022-10-18T02:40:17.120Z,22.80
2022-10-18T02:42:48.751Z,23.05
2022-10-18T02:45:16.633Z,25.67
2022-10-18T02:47:44.180Z,21.63
2022-10-18T02:50:11.738Z,20.85
2022-10-18T02:52:39.308Z,22.35
2022-10-18T02:55:08.194Z,23.27
2022-10-18T02:57:35.744Z,22.42
2022-10-18T03:00:05.382Z,19.90
2022-10-18T03:02:32.856Z,19.33
2022-10-18T03:05:00.347Z,22.58
2022-10-18T03:07:27.719Z,19.75
2022-10-18T03:09:55.000Z,23.63
2022-10-18T03:12:22.386Z,24.42
2022-10-18T03:14:49.776Z,21.13
2022-10-18T03:17:17.169Z,22.30
2022-10-18T03:19:44.922Z,27.58
2022-10-18T03:22:12.324Z,21.10
2022-10-18T03:24:39.659Z,23.63
2022-10-18T03:27:07.012Z,20.60
2022-10-18T03:29:34.372Z,20.00
2022-10-18T03:32:01.854Z,19.75
2022-10-18T03:34:29.302Z,21.98
2022-10-18T03:37:00.994Z,19.58
2022-10-18T03:39:30.804Z,26.88
2022-10-18T03:41:58.222Z,19.25
2022-10-18T03:44:25.652Z,22.17
2022-10-18T03:46:53.226Z,20.27
2022-10-18T03:49:20.606Z,21.55
2022-10-18T03:51:47.973Z,16.90
2022-10-18T03:54:15.888Z,21.58
2022-10-18T03:56:43.374Z,20.67
2022-10-18T03:59:10.705Z,19.75
2022-10-18T04:01:38.096Z,17.15
2022-10-18T04:04:05.512Z,16.25
2022-10-18T04:06:32.963Z,15.15
2022-10-18T04:09:00.383Z,18.15
2022-10-18T04:11:27.810Z,19.75
2022-10-18T04:13:55.477Z,18.10
2022-10-18T04:16:23.035Z,17.80
2022-10-18T04:18:50.382Z,19.35
2022-10-18T04:21:17.808Z,18.25
2022-10-18T04:23:48.093Z,19.15
2022-10-18T04:26:17.866Z,22.00
2022-10-18T04:28:45.497Z,17.60
2022-10-18T04:31:13.017Z,20.38
2022-10-18T04:33:40.720Z,20.92
2022-10-18T04:36:08.309Z,19.60
2022-10-18T04:38:35.872Z,17.75
2022-10-18T04:41:03.360Z,15.98
2022-10-18T04:43:30.901Z,18.83
2022-10-18T04:45:58.562Z,20.05
2022-10-18T04:48:26.118Z,20.65
2022-10-18T04:50:53.550Z,20.88
2022-10-18T04:53:21.125Z,20.63
2022-10-18T04:55:49.588Z,21.08
2022-10-18T04:58:18.028Z,21.27
2022-10-18T05:00:46.029Z,18.83
2022-10-18T05:03:14.466Z,20.73
2022-10-18T05:06:00.879Z,20.27
2022-10-18T05:08:29.657Z,21.48
2022-10-18T05:10:57.254Z,22.23
2022-10-18T05:13:24.832Z,18.98
2022-10-18T05:15:52.240Z,20.02
2022-10-18T05:18:19.618Z,20.60
2022-10-18T05:20:47.326Z,22.27
2022-10-18T05:23:14.723Z,20.67
2022-10-18T05:25:43.475Z,21.25
2022-10-18T05:28:34.750Z,20.02
2022-10-18T05:31:07.728Z,21.88
2022-10-18T05:33:35.528Z,24.63
2022-10-18T05:36:02.942Z,22.00
2022-10-18T05:38:31.610Z,21.70
2022-10-18T05:40:59.978Z,21.40
2022-10-18T05:43:29.204Z,21.35
2022-10-18T05:45:57.003Z,22.73
2022-10-18T05:48:25.173Z,17.13
2022-10-18T05:50:52.994Z,21.73
2022-10-18T05:53:37.212Z,21.67
2022-10-18T05:56:06.225Z,19.75
2022-10-18T05:58:34.017Z,17.95
2022-10-18T06:01:02.594Z,17.90
2022-10-18T06:03:31.204Z,17.48
2022-10-18T06:06:02.326Z,19.60
2022-10-18T06:08:30.193Z,17.80
2022-10-18T06:10:57.723Z,20.42
2022-10-18T06:13:25.207Z,21.17
2022-10-18T06:15:57.719Z,17.40
2022-10-18T06:18:25.283Z,21.50
2022-10-18T06:21:00.237Z,19.90
2022-10-18T06:23:28.412Z,23.20
2022-10-18T06:26:02.198Z,18.02
2022-10-18T06:28:30.407Z,19.02
2022-10-18T06:30:58.208Z,15.40
2022-10-18T06:33:25.717Z,16.55
2022-10-18T06:35:58.277Z,16.48
2022-10-18T06:38:26.258Z,16.95
2022-10-18T06:40:54.505Z,16.30
2022-10-18T06:43:22.135Z,18.17
2022-10-18T06:45:50.576Z,17.30
2022-10-18T06:50:53.626Z,17.05
2022-10-18T06:53:21.138Z,19.42
2022-10-18T06:55:48.649Z,18.77
2022-10-18T06:58:16.499Z,19.15
2022-10-18T07:00:45.598Z,17.95
2022-10-18T07:03:13.172Z,17.48
2022-10-18T07:05:41.275Z,20.75
2022-10-18T07:08:08.737Z,14.68
2022-10-18T07:10:36.542Z,15.38
2022-10-18T07:13:27.488Z,18.40
2022-10-18T07:16:02.432Z,16.23
2022-10-18T07:18:29.941Z,16.02
2022-10-18T07:20:57.320Z,18.85
2022-10-18T07:23:24.832Z,17.00
2022-10-18T07:25:52.226Z,20.52
2022-10-18T07:28:19.589Z,18.88
2022-10-18T07:30:46.963Z,17.85
2022-10-18T07:33:14.420Z,19.63
2022-10-18T07:35:41.793Z,21.50
2022-10-18T07:38:09.150Z,20.13
2022-10-18T07:40:36.462Z,18.75
2022-10-18T07:43:04.841Z,20.63
2022-10-18T07:45:32.975Z,16.58
2022-10-18T07:48:00.452Z,19.98
2022-10-18T07:50:27.782Z,21.77
2022-10-18T07:52:55.109Z,21.20
2022-10-18T07:55:22.485Z,19.48
2022-10-18T07:57:49.874Z,22.33
2022-10-18T08:00:17.275Z,18.55
2022-10-18T08:02:44.641Z,19.85
2022-10-18T08:05:12.186Z,17.75
2022-10-18T08:07:39.614Z,17.40
2022-10-18T08:10:07.214Z,19.52
2022-10-18T08:12:34.582Z,18.45
2022-10-18T08:15:04.928Z,16.52
2022-10-18T08:17:32.908Z,15.85
2022-10-18T08:20:11.626Z,16.75
2022-10-18T08:22:49.891Z,21.83
2022-10-18T08:25:17.556Z,18.25
2022-10-18T08:27:45.330Z,17.88
2022-10-18T08:30:12.813Z,18.85
2022-10-18T08:32:40.353Z,16.60
2022-10-18T08:35:09.357Z,15.15
2022-10-18T08:37:36.843Z,15.38
2022-10-18T08:40:04.699Z,13.55
2022-10-18T08:43:07.482Z,14.93
2022-10-18T08:45:42.755Z,14.13
2022-10-18T08:48:24.011Z,16.92
2022-10-18T08:50:54.615Z,18.42
2022-10-18T08:53:35.056Z,16.10
2022-10-18T08:56:15.027Z,16.00
2022-10-18T08:58:44.965Z,12.90
2022-10-18T09:06:50.893Z,20.10
2022-10-18T09:09:32.276Z,21.27
2022-10-18T09:15:30.129Z,19.88
2022-10-18T09:20:47.847Z,15.50
2022-10-18T09:26:20.175Z,16.33
2022-10-18T09:34:54.224Z,14.85
2022-10-18T09:37:43.742Z,16.02
2022-10-18T09:43:16.464Z,13.77
2022-10-18T09:45:56.508Z,15.65
2022-10-18T09:51:24.523Z,17.80
2022-10-18T10:02:29.156Z,15.35
2022-10-18T10:05:13.464Z,17.05
2022-10-18T10:07:56.808Z,12.57
2022-10-18T10:10:47.128Z,11.85
2022-10-18T10:16:07.150Z,13.93
2022-10-18T10:21:36.394Z,12.55
2022-10-18T10:24:26.190Z,13.63
2022-10-18T10:27:20.756Z,13.77
2022-10-18T10:30:07.221Z,13.93
2022-10-18T10:33:00.621Z,13.60
2022-10-18T10:35:53.870Z,12.85
2022-10-18T10:38:31.581Z,13.50
2022-10-18T10:41:27.348Z,13.98
2022-10-18T10:44:26.912Z,13.30
2022-10-18T10:47:04.487Z,15.10
2022-10-18T10:52:38.012Z,15.35
2022-10-18T10:55:34.793Z,19.73
2022-10-18T10:58:28.669Z,19.33
2022-10-18T11:01:38.028Z,19.85
2022-10-18T11:04:37.515Z,34.50
2022-10-18T11:08:01.495Z,28.75
2022-10-18T11:11:06.010Z,22.13
2022-10-18T11:16:39.096Z,32.20
2022-10-18T11:22:27.232Z,54.92
2022-10-18T11:25:05.698Z,31.45
2022-10-18T11:28:21.565Z,27.88
2022-10-18T11:43:04.277Z,28.77
2022-10-18T11:59:54.298Z,26.42
2022-10-18T12:03:19.037Z,27.38
2022-10-18T12:06:07.686Z,19.45
2022-10-18T12:11:36.713Z,32.65
2022-10-18T12:23:19.790Z,22.40
2022-10-18T12:26:19.483Z,22.58
2022-10-18T12:43:34.346Z,19.73
2022-10-18T12:46:25.352Z,19.65
2022-10-18T12:49:26.765Z,22.15
2022-10-18T12:52:18.005Z,20.52
2022-10-18T13:31:00.787Z,16.35
2022-10-18T13:33:51.129Z,18.75
2022-10-18T13:36:37.323Z,14.48
2022-10-18T13:39:28.284Z,17.25
2022-10-18T13:44:44.925Z,17.25
2022-10-18T13:47:49.273Z,18.05
2022-10-18T13:50:46.361Z,19.40
2022-10-18T13:54:07.296Z,16.70
2022-10-18T14:08:38.122Z,15.63
2022-10-18T14:17:25.659Z,14.43
2022-10-18T14:20:55.262Z,14.52
2022-10-18T14:23:56.971Z,13.60
2022-10-18T14:26:41.743Z,13.95
2022-10-18T14:29:31.459Z,14.25
2022-10-18T14:35:36.043Z,15.40
2022-10-18T14:38:21.326Z,25.27
2022-10-18T14:41:25.299Z,14.48
2022-10-18T14:44:36.532Z,15.07
2022-10-18T14:47:41.654Z,14.55
2022-10-18T14:50:32.580Z,13.75
2022-10-18T14:53:27.843Z,15.20
2022-10-18T14:56:19.548Z,13.65
2022-10-18T14:59:09.222Z,13.07
2022-10-18T15:01:57.770Z,11.88
2022-10-18T15:04:48.509Z,10.10
2022-10-18T15:07:34.944Z,13.00
2022-10-18T15:10:34.019Z,12.18
2022-10-18T15:13:30.401Z,12.00
2022-10-18T15:16:36.605Z,13.27
2022-10-18T15:22:30.643Z,13.68
2022-10-18T15:28:22.783Z,13.98
2022-10-18T15:31:10.160Z,16.95
2022-10-18T15:34:01.690Z,13.80
2022-10-18T15:36:41.456Z,15.85
2022-10-18T15:42:28.546Z,8.80
2022-10-18T15:45:32.298Z,10.60
2022-10-18T15:51:12.766Z,12.10
2022-10-18T15:56:50.668Z,8.35
2022-10-18T15:59:39.123Z,5.15
2022-10-18T16:02:21.239Z,3.60
2022-10-18T16:05:05.303Z,3.40
2022-10-18T16:07:45.832Z,2.53
2022-10-18T16:10:35.326Z,2.83
2022-10-18T16:13:30.592Z,4.13
2022-10-18T16:16:14.584Z,4.47
2022-10-18T16:19:06.163Z,2.25
2022-10-18T16:21:44.547Z,2.80
2022-10-18T16:24:27.687Z,3.47
2022-10-18T16:27:04.487Z,1.90
2022-10-18T16:29:52.041Z,3.22
2022-10-18T16:32:34.387Z,2.70
2022-10-18T16:35:21.245Z,1.40
2022-10-18T16:38:07.727Z,2.15
2022-10-18T16:40:56.757Z,1.77
2022-10-18T16:43:38.347Z,1.30
2022-10-18T16:49:12.859Z,3.60
2022-10-18T16:51:52.930Z,1.65
2022-10-18T16:54:37.916Z,1.65
2022-10-18T17:00:11.111Z,1.00
2022-10-18T17:03:04.628Z,2.05
2022-10-18T17:05:48.712Z,0.98
2022-10-18T17:08:38.412Z,3.03
2022-10-18T17:11:21.877Z,1.27
2022-10-18T17:14:05.660Z,1.05
2022-10-18T17:16:54.669Z,1.83
2022-10-18T17:19:36.024Z,0.90
2022-10-18T17:22:17.147Z,2.28
2022-10-18T17:25:00.805Z,1.00
2022-10-18T17:27:40.133Z,1.45
2022-10-18T17:30:28.288Z,5.55
2022-10-18T17:33:01.532Z,1.30
2022-10-18T17:35:39.950Z,1.48
2022-10-18T17:38:21.884Z,2.35
2022-10-18T17:40:57.003Z,1.10
2022-10-18T17:43:29.054Z,1.15
2022-10-18T17:46:24.842Z,2.00
2022-10-18T17:49:02.239Z,2.78
2022-10-18T17:51:46.760Z,1.58
2022-10-18T17:54:35.055Z,2.67
2022-10-18T17:57:26.502Z,1.70
2022-10-18T18:00:04.113Z,2.25
2022-10-18T18:02:59.542Z,3.00
2022-10-18T18:05:37.089Z,0.90
2022-10-18T18:08:21.830Z,3.40
2022-10-18T18:11:04.450Z,1.30
2022-10-18T18:13:54.618Z,1.13
2022-10-18T18:16:38.738Z,2.40
2022-10-18T18:19:19.158Z,2.03
2022-10-18T18:21:55.300Z,1.30
2022-10-18T18:24:36.057Z,3.85
2022-10-18T18:27:17.008Z,1.00
2022-10-18T18:29:57.875Z,1.73
2022-10-18T18:32:38.479Z,3.05
2022-10-18T18:35:26.815Z,1.60
2022-10-18T18:38:06.440Z,0.82
2022-10-18T18:41:02.033Z,0.90
2022-10-18T18:43:42.257Z,1.30
2022-10-18T18:46:17.168Z,1.95
2022-10-18T18:48:59.038Z,2.22
2022-10-18T18:51:44.652Z,1.02
2022-10-18T18:54:30.590Z,1.23
2022-10-18T18:57:10.158Z,0.68
2022-10-18T18:59:42.838Z,1.25
2022-10-18T19:02:18.297Z,0.75
2022-10-18T19:05:01.716Z,0.50
2022-10-18T19:07:42.168Z,2.05
2022-10-18T19:10:19.625Z,0.82
2022-10-18T19:12:54.511Z,0.40
2022-10-18T19:15:30.472Z,2.05
2022-10-18T19:18:05.289Z,1.05
2022-10-18T19:20:45.002Z,0.30
2022-10-18T19:23:14.063Z,2.28
2022-10-18T19:25:53.509Z,0.63
2022-10-18T19:28:27.882Z,1.17
2022-10-18T19:31:08.507Z,0.98
2022-10-18T19:33:55.622Z,1.05
2022-10-18T19:36:35.817Z,1.45
2022-10-18T19:39:15.953Z,2.05
2022-10-18T19:41:52.401Z,1.00
2022-10-18T19:44:30.783Z,3.25
2022-10-18T19:47:09.773Z,1.95
2022-10-18T19:49:48.962Z,1.35
2022-10-18T19:52:18.734Z,0.75
2022-10-18T19:54:51.394Z,0.90
2022-10-18T19:57:23.485Z,1.08
2022-10-18T20:00:01.010Z,1.77
2022-10-18T20:02:55.840Z,2.65
2022-10-18T20:05:35.445Z,2.08
2022-10-18T20:08:08.511Z,1.58
2022-10-18T20:10:41.232Z,1.73
2022-10-18T20:13:15.717Z,1.25
2022-10-18T20:15:54.091Z,0.70
2022-10-18T20:18:28.214Z,3.28
2022-10-18T20:20:59.868Z,2.25
2022-10-18T20:23:33.013Z,2.13
2022-10-18T20:26:08.678Z,1.35
2022-10-18T20:31:18.421Z,2.78
2022-10-18T20:33:55.506Z,3.03
2022-10-18T20:36:28.682Z,1.05
2022-10-18T20:39:04.867Z,1.88
2022-10-18T20:41:41.540Z,2.28
2022-10-18T20:44:16.909Z,1.70
2022-10-18T20:46:47.612Z,2.10
2022-10-18T20:49:20.580Z,3.08
2022-10-18T20:51:51.494Z,3.67
2022-10-18T20:54:23.717Z,3.67
2022-10-18T20:56:53.072Z,1.98
2022-10-18T20:59:23.461Z,3.55
2022-10-18T21:01:53.955Z,2.20
2022-10-18T21:04:27.060Z,3.55
2022-10-18T21:06:56.512Z,1.55
2022-10-18T21:09:26.106Z,2.90
2022-10-18T21:11:54.829Z,1.52
2022-10-18T21:14:25.201Z,1.92
2022-10-18T21:16:53.511Z,2.72
2022-10-18T21:19:25.036Z,1.92
2022-10-18T21:21:54.972Z,1.52
2022-10-18T21:24:24.920Z,1.90
2022-10-18T21:26:52.963Z,1.27
2022-10-18T21:29:22.496Z,1.33
2022-10-18T21:31:54.679Z,1.60
2022-10-18T21:34:22.598Z,1.50
2022-10-18T21:36:51.346Z,2.13
2022-10-18T21:41:52.075Z,2.35
2022-10-18T21:44:20.207Z,3.45
2022-10-18T21:46:48.142Z,3.00
2022-10-18T21:49:16.826Z,2.47
2022-10-18T21:51:46.026Z,3.25
2022-10-18T21:54:16.580Z,2.03
2022-10-18T21:56:44.299Z,1.65
2022-10-18T21:59:14.146Z,2.67
2022-10-18T22:01:44.390Z,1.35
2022-10-18T22:04:23.234Z,1.42
2022-10-18T22:06:52.225Z,5.35
2022-10-18T22:09:21.604Z,1.23
2022-10-18T22:11:52.485Z,3.58
2022-10-18T22:14:20.053Z,1.55
2022-10-18T22:16:47.599Z,3.47
2022-10-18T22:19:15.047Z,1.98
2022-10-18T22:21:42.415Z,1.35
2022-10-18T22:24:10.498Z,1.42
2022-10-18T22:26:40.394Z,1.20
2022-10-18T22:29:12.880Z,1.30
2022-10-18T22:31:43.961Z,2.55
2022-10-18T22:34:15.591Z,1.63
2022-10-18T22:36:43.700Z,3.78
2022-10-18T22:39:14.570Z,1.42
2022-10-18T22:41:42.581Z,3.80
2022-10-18T22:44:12.678Z,1.10
2022-10-18T22:46:41.218Z,1.00
2022-10-18T22:49:08.991Z,1.50
2022-10-18T22:51:36.440Z,1.55
2022-10-18T22:54:04.167Z,1.13
2022-10-18T22:56:34.141Z,2.75
2022-10-18T22:59:01.532Z,1.20
2022-10-18T23:01:28.938Z,2.10
2022-10-18T23:03:58.728Z,2.85
2022-10-18T23:09:10.516Z,1.33
2022-10-18T23:11:38.414Z,4.00
2022-10-18T23:14:07.015Z,2.03
2022-10-18T23:16:34.816Z,1.50
2022-10-18T23:19:02.546Z,4.20
2022-10-18T23:21:29.880Z,1.92
2022-10-18T23:23:57.681Z,1.73
2022-10-18T23:26:27.416Z,1.42
2022-10-18T23:28:55.022Z,1.27
2022-10-18T23:34:02.248Z,3.35
2022-10-18T23:36:30.931Z,3.03
2022-10-18T23:38:58.318Z,1.70
2022-10-18T23:41:29.564Z,1.60
2022-10-18T23:43:57.050Z,1.95
2022-10-18T23:46:25.298Z,1.27
2022-10-18T23:48:52.782Z,2.42
2022-10-18T23:51:20.177Z,1.25
2022-10-18T23:53:47.605Z,0.85
2022-10-18T23:56:16.756Z,1.42
2022-10-18T23:58:45.441Z,2.15
